Kezdőlap
METAR-TAF:

METAR-TAF

Repülőterek :

Loei, Thaiföld

földrajzi szélesség: 17-27N, földrajzi hosszúság: 101-44E, magasság: 253 m

Jelenlegi meteorológiai megfigyelések

A jelentés 1 órával és 1 perccel ezelõtt készült, 06:00 UTC
Különbözõ irányokból fújó szél 5 kt
Hőmérséklet 34°C
Páratartalom 60%
Légköri nyomás 1006 hPa
Látótávolság 10 km, vagy több
Kevés felhő 3000 lábon

METAR: VTUL 280600Z VRB05KT 9999 FEW030 34/25 Q1006 NOSIG

Idő: 14:01 (07:01 UTC)

Előrejelzés

A jelentés 2 órával és 1 perccel ezelõtt készült, 05:00 UTC
Az előrejelzés 28-én 06 óra UTC és 29-én 06 óra UTC között érvényes
Nyugati szél 5 kt
Látótávolság: 9000 m
Kevés felhő 3000 lábon
Szórványos felhőzet 10000 lábon

TAF: VTUL 280500Z 2806/2906 27005KT 9000 FEW030 SCT100

Meteorológiai megfigyelések és előrejelzések több, mint 4000 repülőtéren (METAR és TAF jelentéseket).

A térképen piros és sárga pontok jelzik az elérhető meteorológiai állomásokat.

Mozgassa az egeret a pont fölött, hogy megjelenjen az állomás neve.

Azután kattintson az időjárási megfigyelések és előrejelzések megtekintéséhez.

A térkép megváltoztatása: kattintson a fekete keresztel jelölt zöld gombra ráközelítéshez, a vonallal jelölt zöld gombra távolításhoz, vagy a zöld nyilakra a szomszédos térképek eléréséhez.


METAR-TAF: